createdAt,value
2019-05-09T00:01:35.423Z,2.77
2019-05-09T00:04:05.213Z,3.50
2019-05-09T00:06:34.781Z,4.72
2019-05-09T00:09:05.511Z,6.17
2019-05-09T00:11:35.343Z,2.17
2019-05-09T00:14:05.288Z,3.17
2019-05-09T00:16:35.163Z,4.70
2019-05-09T00:19:04.732Z,3.75
2019-05-09T00:21:39.808Z,2.27
2019-05-09T00:24:09.476Z,2.17
2019-05-09T00:26:39.174Z,3.65
2019-05-09T00:29:14.441Z,3.15
2019-05-09T00:31:59.075Z,1.60
2019-05-09T00:34:38.216Z,1.75
2019-05-09T00:37:07.850Z,3.60
2019-05-09T00:39:37.443Z,1.32
2019-05-09T00:42:07.351Z,2.83
2019-05-09T00:44:38.796Z,2.80
2019-05-09T00:47:27.300Z,2.25
2019-05-09T00:49:56.912Z,4.62
2019-05-09T00:52:27.070Z,2.20
2019-05-09T00:54:58.748Z,2.90
2019-05-09T00:57:36.745Z,3.70
2019-05-09T01:00:17.516Z,1.80
2019-05-09T01:02:47.177Z,2.10
2019-05-09T01:05:16.839Z,1.80
2019-05-09T01:07:46.648Z,1.87
2019-05-09T01:10:16.649Z,2.27
2019-05-09T01:12:46.600Z,2.65
2019-05-09T01:15:16.944Z,1.80
2019-05-09T01:17:49.501Z,4.67
2019-05-09T01:20:19.366Z,1.82
2019-05-09T01:22:48.984Z,1.75
2019-05-09T01:25:18.779Z,1.90
2019-05-09T01:27:48.331Z,2.33
2019-05-09T01:30:18.080Z,2.17
2019-05-09T01:33:03.643Z,1.35
2019-05-09T01:35:33.991Z,2.12
2019-05-09T01:38:03.793Z,3.47
2019-05-09T01:40:33.741Z,1.52
2019-05-09T01:43:04.461Z,2.45
2019-05-09T01:45:34.402Z,3.27
2019-05-09T01:48:03.915Z,1.70
2019-05-09T01:50:34.155Z,2.00
2019-05-09T01:53:04.085Z,1.92
2019-05-09T01:55:51.376Z,1.12
2019-05-09T01:58:23.126Z,1.22
2019-05-09T02:00:54.048Z,1.47
2019-05-09T02:03:23.456Z,2.12
2019-05-09T02:05:53.261Z,1.60
2019-05-09T02:08:23.609Z,1.80
2019-05-09T02:10:54.202Z,2.33
2019-05-09T02:13:24.258Z,1.57
2019-05-09T02:16:24.688Z,1.82
2019-05-09T02:19:00.110Z,1.62
2019-05-09T02:21:29.748Z,2.37
2019-05-09T02:23:59.347Z,1.70
2019-05-09T02:26:28.902Z,2.47
2019-05-09T02:28:58.506Z,1.85
2019-05-09T02:31:28.073Z,5.50
2019-05-09T02:33:58.254Z,2.55
2019-05-09T02:36:29.526Z,2.05
2019-05-09T02:38:59.425Z,1.75
2019-05-09T02:41:28.956Z,4.72
2019-05-09T02:43:58.773Z,1.95
2019-05-09T02:46:50.988Z,3.42
2019-05-09T02:49:20.613Z,1.67
2019-05-09T02:51:50.215Z,1.95
2019-05-09T02:54:20.097Z,2.00
2019-05-09T02:56:49.659Z,2.47
2019-05-09T02:59:31.736Z,4.75
2019-05-09T03:02:29.317Z,2.08
2019-05-09T03:04:58.964Z,1.65
2019-05-09T03:07:48.708Z,2.02
2019-05-09T03:10:19.344Z,1.80
2019-05-09T03:12:50.321Z,2.98
2019-05-09T03:15:20.548Z,2.00
2019-05-09T03:17:50.238Z,2.00
2019-05-09T03:20:51.150Z,1.90
2019-05-09T03:23:20.723Z,2.27
2019-05-09T03:25:50.364Z,2.47
2019-05-09T03:28:30.991Z,2.67
2019-05-09T03:31:01.648Z,2.05
2019-05-09T03:33:35.447Z,2.85
2019-05-09T03:36:02.787Z,3.15
2019-05-09T03:38:32.390Z,3.37
2019-05-09T03:41:02.048Z,2.17
2019-05-09T03:43:31.837Z,3.08
2019-05-09T03:46:08.324Z,2.05
2019-05-09T03:48:42.970Z,3.15
2019-05-09T03:51:12.618Z,2.15
2019-05-09T03:53:42.184Z,1.85
2019-05-09T03:56:13.845Z,1.65
2019-05-09T03:58:43.407Z,3.77
2019-05-09T04:01:13.057Z,3.50
2019-05-09T04:03:42.615Z,2.10
2019-05-09T04:06:12.522Z,6.45
2019-05-09T04:08:42.040Z,2.27
2019-05-09T04:11:11.978Z,3.67
2019-05-09T04:13:48.111Z,3.77
2019-05-09T04:16:19.198Z,2.37
2019-05-09T04:18:49.858Z,3.47
2019-05-09T04:21:19.412Z,3.00
2019-05-09T04:23:49.083Z,2.30
2019-05-09T04:26:38.148Z,2.20
2019-05-09T04:29:08.133Z,1.95
2019-05-09T04:31:38.359Z,3.27
2019-05-09T04:34:09.857Z,2.67
2019-05-09T04:36:39.839Z,3.22
2019-05-09T04:39:12.716Z,3.62
2019-05-09T04:41:42.372Z,4.92
2019-05-09T04:44:28.890Z,4.00
2019-05-09T04:46:59.872Z,3.92
2019-05-09T04:49:30.165Z,2.37
2019-05-09T04:52:01.092Z,2.20
2019-05-09T04:54:30.711Z,2.10
2019-05-09T04:57:00.304Z,4.95
2019-05-09T04:59:30.192Z,2.77
2019-05-09T05:02:11.080Z,2.27
2019-05-09T05:04:40.725Z,3.70
2019-05-09T05:07:10.550Z,2.40
2019-05-09T05:09:40.164Z,2.70
2019-05-09T05:12:10.277Z,5.35
2019-05-09T05:14:40.126Z,3.20
2019-05-09T05:17:11.362Z,2.35
2019-05-09T05:19:41.055Z,3.08
2019-05-09T05:22:38.542Z,3.98
2019-05-09T05:25:09.251Z,2.08
2019-05-09T05:27:38.977Z,6.20
2019-05-09T05:30:09.029Z,3.35
2019-05-09T05:32:58.083Z,2.12
2019-05-09T05:35:58.558Z,3.15
2019-05-09T05:38:28.109Z,2.27
2019-05-09T05:40:57.910Z,3.15
2019-05-09T05:43:40.564Z,4.45
2019-05-09T05:46:18.925Z,2.83
2019-05-09T05:48:49.095Z,2.75
2019-05-09T05:51:19.016Z,7.72
2019-05-09T05:53:48.624Z,15.60
2019-05-09T05:56:18.382Z,16.45
2019-05-09T05:58:49.000Z,12.33
2019-05-09T06:01:18.994Z,4.78
2019-05-09T06:03:48.653Z,2.65
2019-05-09T06:06:18.263Z,2.87
2019-05-09T06:08:48.512Z,3.98
2019-05-09T06:11:18.442Z,3.35
2019-05-09T06:13:57.281Z,2.05
2019-05-09T06:16:22.259Z,4.47
2019-05-09T06:18:51.480Z,2.40
2019-05-09T06:21:21.112Z,2.00
2019-05-09T06:23:50.744Z,2.42
2019-05-09T06:26:20.342Z,3.55
2019-05-09T06:28:50.278Z,2.77
2019-05-09T06:31:20.169Z,3.60
2019-05-09T06:33:53.523Z,1.82
2019-05-09T06:36:21.026Z,5.33
2019-05-09T06:38:50.932Z,2.70
2019-05-09T06:41:20.503Z,4.40
2019-05-09T06:44:10.273Z,3.22
2019-05-09T06:46:43.009Z,4.17
2019-05-09T06:49:27.125Z,3.62
2019-05-09T06:51:47.672Z,6.80
2019-05-09T06:54:17.572Z,2.95
2019-05-09T06:56:47.616Z,2.62
2019-05-09T06:59:19.131Z,3.40
2019-05-09T07:01:52.576Z,4.12
2019-05-09T07:04:29.524Z,3.10
2019-05-09T07:07:09.748Z,1.85
2019-05-09T07:09:48.507Z,4.50
2019-05-09T07:12:18.230Z,2.47
2019-05-09T07:14:48.755Z,2.95
2019-05-09T07:17:18.803Z,2.10
2019-05-09T07:19:49.001Z,5.83
2019-05-09T07:22:39.254Z,3.95
2019-05-09T07:25:12.580Z,3.75
2019-05-09T07:27:42.195Z,2.80
2019-05-09T07:30:22.455Z,1.67
2019-05-09T07:33:01.199Z,2.77
2019-05-09T07:35:30.841Z,2.75
2019-05-09T07:38:00.434Z,2.37
2019-05-09T07:40:30.834Z,2.50
2019-05-09T07:43:00.534Z,3.50
2019-05-09T07:45:30.166Z,3.42
2019-05-09T07:48:00.104Z,4.53
2019-05-09T07:50:29.679Z,2.10
2019-05-09T07:52:59.536Z,2.40
2019-05-09T07:55:29.070Z,1.98
2019-05-09T07:57:59.285Z,2.92
2019-05-09T08:00:33.533Z,3.98
2019-05-09T08:03:03.239Z,2.45
2019-05-09T08:05:33.510Z,1.85
2019-05-09T08:08:04.881Z,7.35
2019-05-09T08:10:34.708Z,2.17
2019-05-09T08:13:08.000Z,2.40
2019-05-09T08:15:38.259Z,6.93
2019-05-09T08:18:08.649Z,5.33
2019-05-09T08:20:40.601Z,2.57
2019-05-09T08:23:09.537Z,1.53
2019-05-09T08:25:39.535Z,3.20
2019-05-09T08:28:09.358Z,2.20
2019-05-09T08:30:40.428Z,1.83
2019-05-09T08:33:10.524Z,4.67
2019-05-09T08:35:40.064Z,5.70
2019-05-09T08:38:09.692Z,3.33
2019-05-09T08:40:39.398Z,2.40
2019-05-09T08:43:09.260Z,4.60
2019-05-09T08:45:38.888Z,3.55
2019-05-09T08:48:09.401Z,3.00
2019-05-09T08:50:43.696Z,2.80
2019-05-09T08:53:13.271Z,2.60
2019-05-09T08:55:42.879Z,2.60
2019-05-09T08:58:12.434Z,3.83
2019-05-09T09:00:42.351Z,3.73
2019-05-09T09:03:11.915Z,8.03
2019-05-09T09:05:43.422Z,4.40
2019-05-09T09:08:12.783Z,5.23
2019-05-09T09:10:42.624Z,2.60
2019-05-09T09:13:12.228Z,2.63
2019-05-09T09:16:11.794Z,1.63
2019-05-09T09:18:14.055Z,2.80
2019-05-09T09:20:43.871Z,2.50
2019-05-09T09:23:13.517Z,5.03
2019-05-09T09:25:43.155Z,3.70
2019-05-09T09:28:13.029Z,3.90
2019-05-09T09:30:42.574Z,2.70
2019-05-09T09:33:13.998Z,2.77
2019-05-09T09:35:43.680Z,6.27
2019-05-09T09:38:13.313Z,4.00
2019-05-09T09:40:42.890Z,6.27
2019-05-09T09:43:12.549Z,5.43
2019-05-09T09:45:42.130Z,6.47
2019-05-09T09:48:11.703Z,5.03
2019-05-09T09:50:41.345Z,6.57
2019-05-09T09:53:10.987Z,5.43
2019-05-09T09:55:40.999Z,3.13
2019-05-09T09:58:10.571Z,1.97
2019-05-09T10:01:02.955Z,3.47
2019-05-09T10:03:30.959Z,5.70
2019-05-09T10:06:00.877Z,6.87
2019-05-09T10:08:30.716Z,4.80
2019-05-09T10:11:00.347Z,3.10
2019-05-09T10:13:30.196Z,2.60
2019-05-09T10:16:25.435Z,4.93
2019-05-09T10:19:02.640Z,2.60
2019-05-09T10:21:38.329Z,2.80
2019-05-09T10:24:08.162Z,2.07
2019-05-09T10:26:41.392Z,1.87
2019-05-09T10:29:11.012Z,2.87
2019-05-09T10:31:40.655Z,2.90
2019-05-09T10:34:11.125Z,2.87
2019-05-09T10:36:40.893Z,3.07
2019-05-09T10:39:10.418Z,6.13
2019-05-09T10:41:39.973Z,2.50
2019-05-09T10:44:29.420Z,3.57
2019-05-09T10:47:21.316Z,2.63
2019-05-09T10:49:51.183Z,1.60
2019-05-09T10:52:21.021Z,5.10
2019-05-09T10:54:50.956Z,2.57
2019-05-09T10:57:20.600Z,3.70
2019-05-09T10:59:50.232Z,4.10
2019-05-09T11:02:19.768Z,3.40
2019-05-09T11:04:49.415Z,6.77
2019-05-09T11:07:18.965Z,5.03
2019-05-09T11:09:48.577Z,2.70
2019-05-09T11:12:18.831Z,2.50
2019-05-09T11:14:48.546Z,4.70
2019-05-09T11:17:21.657Z,2.30
2019-05-09T11:19:49.417Z,5.70
2019-05-09T11:22:19.014Z,3.70
2019-05-09T11:24:51.031Z,3.70
2019-05-09T11:27:19.841Z,2.90
2019-05-09T11:29:50.047Z,2.80
2019-05-09T11:32:19.679Z,3.90
2019-05-09T11:34:49.263Z,3.00
2019-05-09T11:37:22.123Z,4.13
2019-05-09T11:39:50.047Z,2.43
2019-05-09T11:42:19.687Z,5.03
2019-05-09T11:44:49.538Z,2.60
2019-05-09T11:47:32.407Z,2.43
2019-05-09T11:49:50.391Z,3.60
2019-05-09T11:52:20.023Z,6.40
2019-05-09T11:54:49.586Z,2.47
2019-05-09T11:57:19.326Z,4.60
2019-05-09T11:59:48.875Z,4.20
2019-05-09T12:02:20.482Z,1.97
2019-05-09T12:04:50.109Z,4.60
2019-05-09T12:07:19.681Z,2.57
2019-05-09T12:09:49.305Z,3.67
2019-05-09T12:12:19.628Z,2.33
2019-05-09T12:14:49.319Z,3.37
2019-05-09T12:17:19.809Z,2.60
2019-05-09T12:19:49.628Z,10.30
2019-05-09T12:22:19.424Z,3.90
2019-05-09T12:24:49.224Z,4.23
2019-05-09T12:27:19.054Z,2.47
2019-05-09T12:29:49.003Z,2.43
2019-05-09T12:32:18.934Z,2.90
2019-05-09T12:34:48.547Z,4.87
2019-05-09T12:37:18.377Z,3.37
2019-05-09T12:39:48.541Z,1.27
2019-05-09T12:42:18.802Z,1.43
2019-05-09T12:44:49.616Z,1.27
2019-05-09T12:47:19.730Z,2.60
2019-05-09T12:49:49.363Z,2.03
2019-05-09T12:52:18.965Z,2.40
2019-05-09T12:54:48.619Z,2.63
2019-05-09T12:57:19.177Z,3.80
2019-05-09T12:59:52.605Z,1.63
2019-05-09T13:02:20.489Z,2.63
2019-05-09T13:04:50.129Z,4.20
2019-05-09T13:07:19.790Z,2.13
2019-05-09T13:09:52.733Z,1.77
2019-05-09T13:12:20.994Z,3.67
2019-05-09T13:14:50.625Z,2.87
2019-05-09T13:17:34.113Z,1.63
2019-05-09T13:20:04.831Z,2.17
2019-05-09T13:22:34.404Z,2.17
2019-05-09T13:25:04.389Z,1.70
2019-05-09T13:27:33.973Z,0.93
2019-05-09T13:30:04.139Z,1.70
2019-05-09T13:32:33.703Z,1.10
2019-05-09T13:35:03.396Z,1.60
2019-05-09T13:37:33.182Z,1.17
2019-05-09T13:40:03.003Z,3.10
2019-05-09T13:42:32.656Z,1.00
2019-05-09T13:45:02.231Z,1.00
2019-05-09T13:47:32.060Z,3.73
2019-05-09T13:50:01.741Z,1.00
2019-05-09T13:52:31.345Z,1.70
2019-05-09T13:55:01.200Z,1.27
2019-05-09T13:57:30.822Z,1.07
2019-05-09T14:00:00.363Z,4.10
2019-05-09T14:02:30.275Z,1.40
2019-05-09T14:05:00.151Z,3.33
2019-05-09T14:07:29.964Z,1.27
2019-05-09T14:09:59.852Z,1.10
2019-05-09T14:12:29.466Z,0.70
2019-05-09T14:14:59.072Z,0.73
2019-05-09T14:17:45.235Z,0.93
2019-05-09T14:20:00.155Z,1.07
2019-05-09T14:22:30.089Z,2.00
2019-05-09T14:25:00.002Z,4.47
2019-05-09T14:27:29.708Z,0.63
2019-05-09T14:29:59.719Z,2.33
2019-05-09T14:32:31.179Z,0.90
2019-05-09T14:35:01.035Z,1.43
2019-05-09T14:37:30.620Z,1.67
2019-05-09T14:40:04.100Z,0.70
2019-05-09T14:42:31.719Z,1.00
2019-05-09T14:45:01.635Z,1.10
2019-05-09T14:47:31.231Z,0.90
2019-05-09T14:50:00.848Z,1.37
2019-05-09T14:52:30.711Z,1.37
2019-05-09T14:55:00.367Z,0.70
2019-05-09T14:57:30.238Z,1.10
2019-05-09T15:00:00.054Z,0.87
2019-05-09T15:02:30.014Z,0.67
2019-05-09T15:05:09.486Z,1.37
2019-05-09T15:07:39.071Z,1.40
2019-05-09T15:10:09.162Z,1.00
2019-05-09T15:12:39.257Z,0.77
2019-05-09T15:15:09.833Z,2.20
2019-05-09T15:17:39.834Z,0.93
2019-05-09T15:20:09.595Z,0.80
2019-05-09T15:22:39.454Z,0.70
2019-05-09T15:25:09.561Z,2.03
2019-05-09T15:27:39.445Z,0.90
2019-05-09T15:30:09.285Z,1.60
2019-05-09T15:32:39.324Z,1.10
2019-05-09T15:35:09.322Z,5.53
2019-05-09T15:37:38.995Z,1.10
2019-05-09T15:40:09.031Z,3.37
2019-05-09T15:42:39.133Z,0.70
2019-05-09T15:45:09.276Z,1.33
2019-05-09T15:47:38.887Z,1.07
2019-05-09T15:50:18.873Z,0.93
2019-05-09T15:52:40.720Z,0.63
2019-05-09T15:55:10.297Z,0.70
2019-05-09T15:57:40.200Z,1.13
2019-05-09T16:00:10.889Z,0.90
2019-05-09T16:02:40.709Z,1.07
2019-05-09T16:05:10.897Z,0.80
2019-05-09T16:07:40.962Z,1.57
2019-05-09T16:10:10.807Z,1.77
2019-05-09T16:12:40.445Z,1.20
2019-05-09T16:15:10.387Z,1.55
2019-05-09T16:17:39.996Z,1.67
2019-05-09T16:20:09.884Z,1.37
2019-05-09T16:22:39.720Z,1.33
2019-05-09T16:25:09.693Z,0.70
2019-05-09T16:27:39.251Z,1.20
2019-05-09T16:30:09.288Z,1.22
2019-05-09T16:32:38.894Z,0.80
2019-05-09T16:35:08.609Z,1.50
2019-05-09T16:37:57.431Z,1.47
2019-05-09T16:40:09.963Z,1.20
2019-05-09T16:42:39.895Z,1.03
2019-05-09T16:45:09.921Z,1.02
2019-05-09T16:47:39.547Z,0.90
2019-05-09T16:50:12.164Z,1.10
2019-05-09T16:52:43.562Z,1.13
2019-05-09T16:55:18.138Z,1.80
2019-05-09T16:57:47.960Z,1.00
2019-05-09T17:00:31.539Z,2.70
2019-05-09T17:03:01.380Z,2.17
2019-05-09T17:05:30.968Z,0.90
2019-05-09T17:08:00.862Z,1.60
2019-05-09T17:10:30.463Z,1.50
2019-05-09T17:13:00.206Z,1.37
2019-05-09T17:15:30.381Z,1.30
2019-05-09T17:18:00.004Z,2.00
2019-05-09T17:20:48.639Z,1.83
2019-05-09T17:23:21.030Z,1.57
2019-05-09T17:25:50.649Z,1.83
2019-05-09T17:28:20.304Z,2.73
2019-05-09T17:30:49.942Z,2.20
2019-05-09T17:33:19.629Z,2.27
2019-05-09T17:35:49.458Z,2.80
2019-05-09T17:38:19.131Z,2.43
2019-05-09T17:40:48.805Z,4.20
2019-05-09T17:43:18.519Z,1.70
2019-05-09T17:45:48.197Z,2.33
2019-05-09T17:48:18.455Z,6.17
2019-05-09T17:50:48.119Z,3.62
2019-05-09T17:53:18.340Z,1.80
2019-05-09T17:55:48.196Z,1.62
2019-05-09T17:58:27.106Z,1.30
2019-05-09T18:00:49.342Z,2.27
2019-05-09T18:03:18.982Z,2.62
2019-05-09T18:05:48.785Z,1.20
2019-05-09T18:08:18.943Z,1.80
2019-05-09T18:10:48.771Z,2.03
2019-05-09T18:13:23.835Z,1.95
2019-05-09T18:15:50.146Z,2.00
2019-05-09T18:18:19.775Z,1.40
2019-05-09T18:20:49.411Z,2.40
2019-05-09T18:23:19.009Z,1.53
2019-05-09T18:25:49.399Z,1.60
2019-05-09T18:28:19.214Z,2.80
2019-05-09T18:30:49.086Z,2.45
2019-05-09T18:33:30.199Z,1.97
2019-05-09T18:35:59.810Z,3.43
2019-05-09T18:38:32.380Z,2.15
2019-05-09T18:41:02.407Z,1.80
2019-05-09T18:43:32.395Z,1.90
2019-05-09T18:46:02.344Z,2.25
2019-05-09T18:48:31.971Z,1.80
2019-05-09T18:51:01.811Z,1.87
2019-05-09T18:53:31.764Z,1.65
2019-05-09T18:56:01.427Z,1.35
2019-05-09T18:58:31.056Z,2.10
2019-05-09T19:01:00.580Z,1.90
2019-05-09T19:03:30.462Z,2.22
2019-05-09T19:06:00.106Z,2.42
2019-05-09T19:08:29.725Z,2.05
2019-05-09T19:10:59.560Z,2.30
2019-05-09T19:13:29.161Z,2.00
2019-05-09T19:16:05.776Z,2.17
2019-05-09T19:18:54.272Z,2.10
2019-05-09T19:21:27.315Z,4.30
2019-05-09T19:23:57.000Z,3.02
2019-05-09T19:26:39.181Z,2.80
2019-05-09T19:29:09.968Z,2.55
2019-05-09T19:31:39.885Z,3.10
2019-05-09T19:34:09.548Z,3.98
2019-05-09T19:36:39.195Z,5.05
2019-05-09T19:39:10.372Z,3.30
2019-05-09T19:41:40.164Z,3.33
2019-05-09T19:44:09.793Z,3.75
2019-05-09T19:46:39.639Z,2.90
2019-05-09T19:49:09.430Z,3.30
2019-05-09T19:51:38.987Z,4.08
2019-05-09T19:54:08.726Z,3.37
2019-05-09T19:56:38.253Z,5.25
2019-05-09T19:59:08.576Z,4.05
2019-05-09T20:01:38.331Z,2.40
2019-05-09T20:04:08.016Z,2.95
2019-05-09T20:06:37.575Z,2.60
2019-05-09T20:09:12.534Z,5.20
2019-05-09T20:12:00.797Z,3.47
2019-05-09T20:14:42.090Z,12.55
2019-05-09T20:17:11.716Z,5.83
2019-05-09T20:19:41.333Z,25.55
2019-05-09T20:22:11.181Z,21.82
2019-05-09T20:24:40.775Z,20.50
2019-05-09T20:27:10.401Z,8.93
2019-05-09T20:29:39.978Z,7.85
2019-05-09T20:32:09.683Z,19.05
2019-05-09T20:34:39.255Z,16.93
2019-05-09T20:37:08.879Z,11.33
2019-05-09T20:39:38.646Z,4.33
2019-05-09T20:42:08.476Z,2.47
2019-05-09T20:44:38.241Z,2.35
2019-05-09T20:47:08.020Z,2.75
2019-05-09T20:49:37.784Z,2.50
2019-05-09T20:52:07.799Z,2.45
2019-05-09T20:54:37.861Z,1.80
2019-05-09T20:57:07.865Z,1.98
2019-05-09T20:59:37.731Z,2.55
2019-05-09T21:02:07.527Z,2.02
2019-05-09T21:04:37.255Z,2.02
2019-05-09T21:07:07.105Z,3.35
2019-05-09T21:09:37.148Z,3.80
2019-05-09T21:12:06.948Z,3.12
2019-05-09T21:14:36.746Z,2.90
2019-05-09T21:17:06.558Z,2.60
2019-05-09T21:19:37.355Z,2.30
2019-05-09T21:22:07.359Z,3.05
2019-05-09T21:24:37.248Z,1.92
2019-05-09T21:27:07.742Z,2.10
2019-05-09T21:29:37.556Z,1.95
2019-05-09T21:32:07.833Z,2.12
2019-05-09T21:34:37.471Z,2.52
2019-05-09T21:37:08.224Z,2.62
2019-05-09T21:39:37.916Z,2.90
2019-05-09T21:42:07.558Z,2.50
2019-05-09T21:44:37.407Z,5.00
2019-05-09T21:47:07.022Z,2.90
2019-05-09T21:49:36.668Z,2.42
2019-05-09T21:52:06.255Z,2.27
2019-05-09T21:54:35.892Z,3.02
2019-05-09T21:57:05.462Z,2.90
2019-05-09T21:59:35.340Z,2.60
2019-05-09T22:02:05.251Z,5.08
2019-05-09T22:04:34.837Z,2.37
2019-05-09T22:07:04.559Z,3.87
2019-05-09T22:09:34.192Z,3.08
2019-05-09T22:12:04.089Z,2.45
2019-05-09T22:14:33.672Z,3.50
2019-05-09T22:17:09.377Z,3.95
2019-05-09T22:19:38.981Z,3.12
2019-05-09T22:22:08.549Z,2.98
2019-05-09T22:24:38.170Z,3.00
2019-05-09T22:27:07.741Z,3.37
2019-05-09T22:29:37.362Z,3.83
2019-05-09T22:32:06.932Z,3.22
2019-05-09T22:34:36.516Z,2.90
2019-05-09T22:37:06.120Z,5.28
2019-05-09T22:39:35.742Z,2.83
2019-05-09T22:42:05.328Z,3.10
2019-05-09T22:44:35.432Z,3.20
2019-05-09T22:47:04.960Z,3.77
2019-05-09T22:49:34.575Z,4.20
2019-05-09T22:52:04.430Z,4.30
2019-05-09T22:54:34.133Z,3.70
2019-05-09T22:57:03.716Z,6.85
2019-05-09T22:59:33.547Z,6.58
2019-05-09T23:02:06.702Z,5.67
2019-05-09T23:04:34.363Z,6.35
2019-05-09T23:07:04.313Z,7.47
2019-05-09T23:09:33.994Z,8.85
2019-05-09T23:12:03.624Z,8.20
2019-05-09T23:14:33.464Z,8.65
2019-05-09T23:17:03.191Z,9.23
2019-05-09T23:19:32.762Z,10.23
2019-05-09T23:22:02.371Z,9.63
2019-05-09T23:24:33.420Z,8.98
2019-05-09T23:27:08.433Z,10.80
2019-05-09T23:29:38.073Z,10.93
2019-05-09T23:32:28.935Z,9.95
2019-05-09T23:34:58.800Z,11.20
2019-05-09T23:37:28.647Z,10.15
2019-05-09T23:39:58.229Z,10.05
2019-05-09T23:42:27.812Z,8.80
2019-05-09T23:44:57.382Z,8.75
2019-05-09T23:47:26.976Z,9.05
2019-05-09T23:49:56.586Z,8.55
2019-05-09T23:52:26.635Z,8.10
2019-05-09T23:55:13.799Z,7.47
2019-05-09T23:58:00.911Z,7.30
